sensor_id;sensor_type;location;lat;lon;timestamp;P1;durP1;ratioP1;P2;durP2;ratioP2
65871;SDS011;52653;50.080;21.992;2023-04-06T00:00:06;17.20;;;11.50;;
65871;SDS011;52653;50.080;21.992;2023-04-06T00:03:00;17.40;;;11.90;;
65871;SDS011;52653;50.080;21.992;2023-04-06T00:05:35;16.10;;;11.30;;
65871;SDS011;52653;50.080;21.992;2023-04-06T00:08:08;16.60;;;11.40;;
65871;SDS011;52653;50.080;21.992;2023-04-06T00:10:41;18.30;;;11.20;;
65871;SDS011;52653;50.080;21.992;2023-04-06T00:13:13;18.80;;;10.10;;
65871;SDS011;52653;50.080;21.992;2023-04-06T00:15:45;14.60;;;9.40;;
65871;SDS011;52653;50.080;21.992;2023-04-06T00:18:18;14.40;;;10.20;;
65871;SDS011;52653;50.080;21.992;2023-04-06T00:20:52;15.50;;;10.50;;
65871;SDS011;52653;50.080;21.992;2023-04-06T00:23:27;14.80;;;10.40;;
65871;SDS011;52653;50.080;21.992;2023-04-06T00:26:00;15.50;;;10.40;;
65871;SDS011;52653;50.080;21.992;2023-04-06T00:28:33;16.20;;;10.30;;
65871;SDS011;52653;50.080;21.992;2023-04-06T00:31:05;17.90;;;11.70;;
65871;SDS011;52653;50.080;21.992;2023-04-06T00:33:41;15.10;;;10.70;;
65871;SDS011;52653;50.080;21.992;2023-04-06T00:36:34;17.60;;;11.20;;
65871;SDS011;52653;50.080;21.992;2023-04-06T00:39:09;14.60;;;9.90;;
65871;SDS011;52653;50.080;21.992;2023-04-06T00:41:42;16.30;;;10.80;;
65871;SDS011;52653;50.080;21.992;2023-04-06T00:44:40;14.80;;;9.70;;
65871;SDS011;52653;50.080;21.992;2023-04-06T00:47:23;16.20;;;10.80;;
65871;SDS011;52653;50.080;21.992;2023-04-06T00:49:56;14.50;;;9.60;;
65871;SDS011;52653;50.080;21.992;2023-04-06T00:52:29;15.50;;;10.10;;
65871;SDS011;52653;50.080;21.992;2023-04-06T00:55:02;15.90;;;10.20;;
65871;SDS011;52653;50.080;21.992;2023-04-06T00:57:41;12.90;;;9.50;;
65871;SDS011;52653;50.080;21.992;2023-04-06T01:00:17;14.60;;;9.50;;
65871;SDS011;52653;50.080;21.992;2023-04-06T01:02:53;13.70;;;9.50;;
65871;SDS011;52653;50.080;21.992;2023-04-06T01:05:34;13.70;;;8.60;;
65871;SDS011;52653;50.080;21.992;2023-04-06T01:08:15;12.90;;;9.20;;
65871;SDS011;52653;50.080;21.992;2023-04-06T01:10:47;15.10;;;9.30;;
65871;SDS011;52653;50.080;21.992;2023-04-06T01:13:31;13.30;;;9.00;;
65871;SDS011;52653;50.080;21.992;2023-04-06T01:16:06;13.80;;;9.20;;
65871;SDS011;52653;50.080;21.992;2023-04-06T01:18:59;14.70;;;9.30;;
65871;SDS011;52653;50.080;21.992;2023-04-06T01:21:34;14.40;;;9.70;;
65871;SDS011;52653;50.080;21.992;2023-04-06T01:24:29;15.60;;;9.40;;
65871;SDS011;52653;50.080;21.992;2023-04-06T01:27:02;12.10;;;8.60;;
65871;SDS011;52653;50.080;21.992;2023-04-06T01:30:01;13.60;;;8.60;;
65871;SDS011;52653;50.080;21.992;2023-04-06T01:32:55;11.90;;;7.90;;
65871;SDS011;52653;50.080;21.992;2023-04-06T01:35:56;12.10;;;7.80;;
65871;SDS011;52653;50.080;21.992;2023-04-06T01:38:28;12.40;;;8.10;;
65871;SDS011;52653;50.080;21.992;2023-04-06T01:41:01;14.60;;;8.70;;
65871;SDS011;52653;50.080;21.992;2023-04-06T01:43:55;14.20;;;9.50;;
65871;SDS011;52653;50.080;21.992;2023-04-06T01:46:31;15.30;;;9.80;;
65871;SDS011;52653;50.080;21.992;2023-04-06T01:49:05;15.40;;;10.00;;
65871;SDS011;52653;50.080;21.992;2023-04-06T01:51:41;15.20;;;9.50;;
65871;SDS011;52653;50.080;21.992;2023-04-06T01:54:17;17.10;;;10.00;;
65871;SDS011;52653;50.080;21.992;2023-04-06T01:56:58;16.10;;;9.70;;
65871;SDS011;52653;50.080;21.992;2023-04-06T01:59:44;14.50;;;9.40;;
65871;SDS011;52653;50.080;21.992;2023-04-06T02:02:43;12.70;;;9.10;;
65871;SDS011;52653;50.080;21.992;2023-04-06T02:05:20;16.10;;;9.40;;
65871;SDS011;52653;50.080;21.992;2023-04-06T02:07:53;13.90;;;9.00;;
65871;SDS011;52653;50.080;21.992;2023-04-06T02:10:36;14.30;;;9.00;;
65871;SDS011;52653;50.080;21.992;2023-04-06T02:13:15;14.50;;;9.30;;
65871;SDS011;52653;50.080;21.992;2023-04-06T02:15:50;13.80;;;9.00;;
65871;SDS011;52653;50.080;21.992;2023-04-06T02:18:23;14.40;;;9.20;;
65871;SDS011;52653;50.080;21.992;2023-04-06T02:20:55;14.30;;;9.30;;
65871;SDS011;52653;50.080;21.992;2023-04-06T02:23:29;13.40;;;8.70;;
65871;SDS011;52653;50.080;21.992;2023-04-06T02:26:01;18.80;;;9.20;;
65871;SDS011;52653;50.080;21.992;2023-04-06T02:28:34;13.10;;;9.00;;
65871;SDS011;52653;50.080;21.992;2023-04-06T02:31:09;13.50;;;8.40;;
65871;SDS011;52653;50.080;21.992;2023-04-06T02:33:53;14.30;;;8.30;;
65871;SDS011;52653;50.080;21.992;2023-04-06T02:36:26;13.70;;;8.10;;
65871;SDS011;52653;50.080;21.992;2023-04-06T02:38:59;13.80;;;8.30;;
65871;SDS011;52653;50.080;21.992;2023-04-06T02:41:36;15.20;;;8.40;;
65871;SDS011;52653;50.080;21.992;2023-04-06T02:44:10;11.80;;;7.70;;
65871;SDS011;52653;50.080;21.992;2023-04-06T02:46:44;14.20;;;7.80;;
65871;SDS011;52653;50.080;21.992;2023-04-06T02:49:17;13.10;;;8.40;;
65871;SDS011;52653;50.080;21.992;2023-04-06T02:51:50;14.60;;;9.00;;
65871;SDS011;52653;50.080;21.992;2023-04-06T02:54:27;14.30;;;8.80;;
65871;SDS011;52653;50.080;21.992;2023-04-06T02:57:02;12.00;;;8.00;;
65871;SDS011;52653;50.080;21.992;2023-04-06T02:59:42;12.80;;;8.40;;
65871;SDS011;52653;50.080;21.992;2023-04-06T03:02:18;14.90;;;9.00;;
65871;SDS011;52653;50.080;21.992;2023-04-06T03:05:00;13.20;;;8.70;;
65871;SDS011;52653;50.080;21.992;2023-04-06T03:07:37;17.50;;;9.40;;
65871;SDS011;52653;50.080;21.992;2023-04-06T03:10:15;15.40;;;10.40;;
65871;SDS011;52653;50.080;21.992;2023-04-06T03:12:50;17.20;;;10.90;;
65871;SDS011;52653;50.080;21.992;2023-04-06T03:15:26;16.50;;;9.80;;
65871;SDS011;52653;50.080;21.992;2023-04-06T03:18:17;15.40;;;10.30;;
65871;SDS011;52653;50.080;21.992;2023-04-06T03:20:54;14.60;;;10.10;;
65871;SDS011;52653;50.080;21.992;2023-04-06T03:23:47;14.40;;;9.40;;
65871;SDS011;52653;50.080;21.992;2023-04-06T03:26:23;16.20;;;9.30;;
65871;SDS011;52653;50.080;21.992;2023-04-06T03:29:05;14.40;;;10.20;;
65871;SDS011;52653;50.080;21.992;2023-04-06T03:31:48;16.90;;;11.00;;
65871;SDS011;52653;50.080;21.992;2023-04-06T03:34:43;20.90;;;14.00;;
65871;SDS011;52653;50.080;21.992;2023-04-06T03:37:16;16.30;;;11.50;;
65871;SDS011;52653;50.080;21.992;2023-04-06T03:39:53;18.20;;;12.90;;
65871;SDS011;52653;50.080;21.992;2023-04-06T03:42:26;17.50;;;12.20;;
65871;SDS011;52653;50.080;21.992;2023-04-06T03:45:19;14.50;;;9.50;;
65871;SDS011;52653;50.080;21.992;2023-04-06T03:47:55;16.90;;;11.60;;
65871;SDS011;52653;50.080;21.992;2023-04-06T03:50:31;14.70;;;10.00;;
65871;SDS011;52653;50.080;21.992;2023-04-06T03:53:07;17.10;;;10.40;;
65871;SDS011;52653;50.080;21.992;2023-04-06T03:55:43;15.10;;;10.90;;
65871;SDS011;52653;50.080;21.992;2023-04-06T03:58:16;17.40;;;11.10;;
65871;SDS011;52653;50.080;21.992;2023-04-06T04:00:48;16.30;;;11.10;;
65871;SDS011;52653;50.080;21.992;2023-04-06T04:03:23;14.70;;;10.70;;
65871;SDS011;52653;50.080;21.992;2023-04-06T04:05:59;17.40;;;11.40;;
65871;SDS011;52653;50.080;21.992;2023-04-06T04:08:35;17.00;;;11.30;;
65871;SDS011;52653;50.080;21.992;2023-04-06T04:11:07;15.90;;;11.10;;
65871;SDS011;52653;50.080;21.992;2023-04-06T04:13:49;14.70;;;9.90;;
65871;SDS011;52653;50.080;21.992;2023-04-06T04:16:22;22.80;;;14.30;;
65871;SDS011;52653;50.080;21.992;2023-04-06T04:18:54;37.90;;;22.00;;
65871;SDS011;52653;50.080;21.992;2023-04-06T04:21:29;24.40;;;14.10;;
65871;SDS011;52653;50.080;21.992;2023-04-06T04:24:08;18.80;;;12.80;;
65871;SDS011;52653;50.080;21.992;2023-04-06T04:26:41;34.30;;;21.70;;
65871;SDS011;52653;50.080;21.992;2023-04-06T04:29:14;31.60;;;22.30;;
65871;SDS011;52653;50.080;21.992;2023-04-06T04:31:49;19.50;;;12.80;;
65871;SDS011;52653;50.080;21.992;2023-04-06T04:34:25;16.60;;;11.40;;
65871;SDS011;52653;50.080;21.992;2023-04-06T04:36:58;15.20;;;11.80;;
65871;SDS011;52653;50.080;21.992;2023-04-06T04:39:44;17.20;;;14.40;;
65871;SDS011;52653;50.080;21.992;2023-04-06T04:42:17;15.70;;;11.80;;
65871;SDS011;52653;50.080;21.992;2023-04-06T04:44:52;18.20;;;12.80;;
65871;SDS011;52653;50.080;21.992;2023-04-06T04:47:35;15.00;;;10.80;;
65871;SDS011;52653;50.080;21.992;2023-04-06T04:50:09;15.20;;;12.10;;
65871;SDS011;52653;50.080;21.992;2023-04-06T04:52:45;18.20;;;10.90;;
65871;SDS011;52653;50.080;21.992;2023-04-06T04:55:23;18.50;;;14.20;;
65871;SDS011;52653;50.080;21.992;2023-04-06T04:57:57;18.50;;;13.00;;
65871;SDS011;52653;50.080;21.992;2023-04-06T05:00:51;18.70;;;12.90;;
65871;SDS011;52653;50.080;21.992;2023-04-06T05:03:25;19.80;;;12.50;;
65871;SDS011;52653;50.080;21.992;2023-04-06T05:06:04;19.50;;;12.50;;
65871;SDS011;52653;50.080;21.992;2023-04-06T05:08:41;18.00;;;11.50;;
65871;SDS011;52653;50.080;21.992;2023-04-06T05:11:14;15.00;;;10.20;;
65871;SDS011;52653;50.080;21.992;2023-04-06T05:13:50;21.80;;;13.60;;
65871;SDS011;52653;50.080;21.992;2023-04-06T05:16:26;17.40;;;12.20;;
65871;SDS011;52653;50.080;21.992;2023-04-06T05:19:03;14.80;;;10.20;;
65871;SDS011;52653;50.080;21.992;2023-04-06T05:21:51;24.90;;;20.10;;
65871;SDS011;52653;50.080;21.992;2023-04-06T05:24:24;18.50;;;12.40;;
65871;SDS011;52653;50.080;21.992;2023-04-06T05:27:06;22.90;;;15.80;;
65871;SDS011;52653;50.080;21.992;2023-04-06T05:29:59;18.70;;;13.50;;
65871;SDS011;52653;50.080;21.992;2023-04-06T05:32:38;22.10;;;15.20;;
65871;SDS011;52653;50.080;21.992;2023-04-06T05:35:32;19.10;;;14.60;;
65871;SDS011;52653;50.080;21.992;2023-04-06T05:38:09;18.60;;;12.70;;
65871;SDS011;52653;50.080;21.992;2023-04-06T05:40:46;15.70;;;11.10;;
65871;SDS011;52653;50.080;21.992;2023-04-06T05:43:20;17.00;;;11.20;;
65871;SDS011;52653;50.080;21.992;2023-04-06T05:45:56;14.40;;;10.40;;
65871;SDS011;52653;50.080;21.992;2023-04-06T05:48:28;15.80;;;10.90;;
65871;SDS011;52653;50.080;21.992;2023-04-06T05:51:03;16.00;;;9.70;;
65871;SDS011;52653;50.080;21.992;2023-04-06T05:53:47;16.80;;;11.40;;
65871;SDS011;52653;50.080;21.992;2023-04-06T05:56:19;19.50;;;13.10;;
65871;SDS011;52653;50.080;21.992;2023-04-06T05:58:56;17.50;;;12.10;;
65871;SDS011;52653;50.080;21.992;2023-04-06T06:01:32;14.40;;;10.90;;
65871;SDS011;52653;50.080;21.992;2023-04-06T06:04:06;16.60;;;11.70;;
65871;SDS011;52653;50.080;21.992;2023-04-06T06:06:42;16.40;;;11.50;;
65871;SDS011;52653;50.080;21.992;2023-04-06T06:09:30;18.60;;;12.00;;
65871;SDS011;52653;50.080;21.992;2023-04-06T06:12:19;23.50;;;13.60;;
65871;SDS011;52653;50.080;21.992;2023-04-06T06:14:55;19.30;;;12.20;;
65871;SDS011;52653;50.080;21.992;2023-04-06T06:17:38;21.40;;;13.30;;
65871;SDS011;52653;50.080;21.992;2023-04-06T06:20:22;15.30;;;11.00;;
65871;SDS011;52653;50.080;21.992;2023-04-06T06:25:35;19.00;;;11.30;;
65871;SDS011;52653;50.080;21.992;2023-04-06T06:28:07;18.60;;;11.50;;
65871;SDS011;52653;50.080;21.992;2023-04-06T06:30:40;16.90;;;12.00;;
65871;SDS011;52653;50.080;21.992;2023-04-06T06:33:15;19.60;;;12.10;;
65871;SDS011;52653;50.080;21.992;2023-04-06T06:35:50;19.40;;;12.40;;
65871;SDS011;52653;50.080;21.992;2023-04-06T06:38:23;18.40;;;12.10;;
65871;SDS011;52653;50.080;21.992;2023-04-06T06:40:56;17.00;;;9.90;;
65871;SDS011;52653;50.080;21.992;2023-04-06T06:43:31;17.30;;;11.00;;
65871;SDS011;52653;50.080;21.992;2023-04-06T06:46:08;14.90;;;10.40;;
65871;SDS011;52653;50.080;21.992;2023-04-06T06:48:43;18.30;;;10.90;;
65871;SDS011;52653;50.080;21.992;2023-04-06T06:51:16;14.70;;;8.90;;
65871;SDS011;52653;50.080;21.992;2023-04-06T06:53:49;16.00;;;10.00;;
65871;SDS011;52653;50.080;21.992;2023-04-06T06:56:22;24.60;;;14.90;;
65871;SDS011;52653;50.080;21.992;2023-04-06T06:58:56;27.80;;;16.70;;
65871;SDS011;52653;50.080;21.992;2023-04-06T07:01:32;42.00;;;23.60;;
65871;SDS011;52653;50.080;21.992;2023-04-06T07:04:05;17.90;;;11.50;;
65871;SDS011;52653;50.080;21.992;2023-04-06T07:06:38;19.40;;;14.20;;
65871;SDS011;52653;50.080;21.992;2023-04-06T07:09:13;14.90;;;8.80;;
65871;SDS011;52653;50.080;21.992;2023-04-06T07:11:45;18.60;;;11.10;;
65871;SDS011;52653;50.080;21.992;2023-04-06T07:14:20;20.20;;;12.50;;
65871;SDS011;52653;50.080;21.992;2023-04-06T07:16:53;26.10;;;19.20;;
65871;SDS011;52653;50.080;21.992;2023-04-06T07:19:26;17.40;;;11.50;;
65871;SDS011;52653;50.080;21.992;2023-04-06T07:21:59;17.10;;;11.10;;
65871;SDS011;52653;50.080;21.992;2023-04-06T07:24:52;16.20;;;11.70;;
65871;SDS011;52653;50.080;21.992;2023-04-06T07:27:28;20.60;;;13.30;;
65871;SDS011;52653;50.080;21.992;2023-04-06T07:30:01;18.20;;;13.60;;
65871;SDS011;52653;50.080;21.992;2023-04-06T07:32:35;20.00;;;12.60;;
65871;SDS011;52653;50.080;21.992;2023-04-06T07:35:10;18.70;;;12.40;;
65871;SDS011;52653;50.080;21.992;2023-04-06T07:37:54;18.70;;;11.60;;
65871;SDS011;52653;50.080;21.992;2023-04-06T07:40:27;18.00;;;11.40;;
65871;SDS011;52653;50.080;21.992;2023-04-06T07:43:01;17.00;;;10.90;;
65871;SDS011;52653;50.080;21.992;2023-04-06T07:45:34;18.60;;;12.00;;
65871;SDS011;52653;50.080;21.992;2023-04-06T07:48:08;20.40;;;14.40;;
65871;SDS011;52653;50.080;21.992;2023-04-06T07:50:44;19.10;;;12.70;;
65871;SDS011;52653;50.080;21.992;2023-04-06T07:53:17;20.30;;;14.80;;
65871;SDS011;52653;50.080;21.992;2023-04-06T07:55:50;23.90;;;16.70;;
65871;SDS011;52653;50.080;21.992;2023-04-06T07:58:24;19.60;;;14.00;;
65871;SDS011;52653;50.080;21.992;2023-04-06T08:01:18;24.60;;;17.60;;
65871;SDS011;52653;50.080;21.992;2023-04-06T08:04:12;21.80;;;13.00;;
65871;SDS011;52653;50.080;21.992;2023-04-06T08:07:05;20.10;;;13.10;;
65871;SDS011;52653;50.080;21.992;2023-04-06T08:09:40;15.50;;;11.70;;
65871;SDS011;52653;50.080;21.992;2023-04-06T08:12:18;14.10;;;9.90;;
65871;SDS011;52653;50.080;21.992;2023-04-06T08:15:11;16.10;;;11.50;;
65871;SDS011;52653;50.080;21.992;2023-04-06T08:18:04;21.10;;;13.50;;
65871;SDS011;52653;50.080;21.992;2023-04-06T08:20:57;15.50;;;9.90;;
65871;SDS011;52653;50.080;21.992;2023-04-06T08:23:30;17.80;;;11.80;;
65871;SDS011;52653;50.080;21.992;2023-04-06T08:26:22;17.20;;;13.00;;
65871;SDS011;52653;50.080;21.992;2023-04-06T08:29:15;17.00;;;10.50;;
65871;SDS011;52653;50.080;21.992;2023-04-06T08:31:48;15.10;;;12.60;;
65871;SDS011;52653;50.080;21.992;2023-04-06T08:34:21;14.80;;;9.50;;
65871;SDS011;52653;50.080;21.992;2023-04-06T08:36:54;13.90;;;10.60;;
65871;SDS011;52653;50.080;21.992;2023-04-06T08:39:27;14.80;;;11.70;;
65871;SDS011;52653;50.080;21.992;2023-04-06T08:42:00;15.10;;;10.10;;
65871;SDS011;52653;50.080;21.992;2023-04-06T08:44:37;20.30;;;14.40;;
65871;SDS011;52653;50.080;21.992;2023-04-06T08:47:10;19.10;;;14.10;;
65871;SDS011;52653;50.080;21.992;2023-04-06T08:49:51;19.00;;;12.80;;
65871;SDS011;52653;50.080;21.992;2023-04-06T08:52:46;16.80;;;11.10;;
65871;SDS011;52653;50.080;21.992;2023-04-06T08:55:29;16.60;;;11.70;;
65871;SDS011;52653;50.080;21.992;2023-04-06T08:58:05;18.30;;;13.40;;
65871;SDS011;52653;50.080;21.992;2023-04-06T09:00:59;16.70;;;11.50;;
65871;SDS011;52653;50.080;21.992;2023-04-06T09:03:44;16.00;;;12.70;;
65871;SDS011;52653;50.080;21.992;2023-04-06T09:06:18;17.10;;;12.80;;
65871;SDS011;52653;50.080;21.992;2023-04-06T09:08:52;17.40;;;13.30;;
65871;SDS011;52653;50.080;21.992;2023-04-06T09:11:28;17.20;;;12.40;;
65871;SDS011;52653;50.080;21.992;2023-04-06T09:14:11;17.00;;;13.60;;
65871;SDS011;52653;50.080;21.992;2023-04-06T09:16:44;15.00;;;10.50;;
65871;SDS011;52653;50.080;21.992;2023-04-06T09:19:17;15.00;;;11.70;;
65871;SDS011;52653;50.080;21.992;2023-04-06T09:21:49;14.70;;;11.60;;
65871;SDS011;52653;50.080;21.992;2023-04-06T09:24:41;14.70;;;11.00;;
65871;SDS011;52653;50.080;21.992;2023-04-06T09:27:15;18.00;;;13.10;;
65871;SDS011;52653;50.080;21.992;2023-04-06T09:29:48;18.80;;;13.90;;
65871;SDS011;52653;50.080;21.992;2023-04-06T09:32:20;18.60;;;13.50;;
65871;SDS011;52653;50.080;21.992;2023-04-06T09:34:53;18.10;;;13.40;;
65871;SDS011;52653;50.080;21.992;2023-04-06T09:37:35;19.30;;;13.40;;
65871;SDS011;52653;50.080;21.992;2023-04-06T09:40:08;18.10;;;12.20;;
65871;SDS011;52653;50.080;21.992;2023-04-06T09:42:46;21.80;;;13.70;;
65871;SDS011;52653;50.080;21.992;2023-04-06T09:45:21;17.00;;;12.70;;
65871;SDS011;52653;50.080;21.992;2023-04-06T09:48:00;21.90;;;13.70;;
65871;SDS011;52653;50.080;21.992;2023-04-06T09:50:34;19.00;;;13.40;;
65871;SDS011;52653;50.080;21.992;2023-04-06T09:53:07;20.20;;;14.10;;
65871;SDS011;52653;50.080;21.992;2023-04-06T09:55:42;21.50;;;14.50;;
65871;SDS011;52653;50.080;21.992;2023-04-06T09:58:17;27.30;;;17.10;;
65871;SDS011;52653;50.080;21.992;2023-04-06T10:00:59;27.50;;;18.50;;
65871;SDS011;52653;50.080;21.992;2023-04-06T10:03:35;23.50;;;16.10;;
65871;SDS011;52653;50.080;21.992;2023-04-06T10:06:16;21.90;;;15.20;;
65871;SDS011;52653;50.080;21.992;2023-04-06T10:08:52;26.80;;;14.20;;
65871;SDS011;52653;50.080;21.992;2023-04-06T10:11:31;24.70;;;17.90;;
65871;SDS011;52653;50.080;21.992;2023-04-06T10:14:09;19.10;;;13.60;;
65871;SDS011;52653;50.080;21.992;2023-04-06T10:16:42;17.60;;;13.40;;
65871;SDS011;52653;50.080;21.992;2023-04-06T10:19:16;20.60;;;14.70;;
65871;SDS011;52653;50.080;21.992;2023-04-06T10:21:54;20.00;;;16.60;;
65871;SDS011;52653;50.080;21.992;2023-04-06T10:24:29;22.40;;;16.60;;
65871;SDS011;52653;50.080;21.992;2023-04-06T10:27:02;24.60;;;18.60;;
65871;SDS011;52653;50.080;21.992;2023-04-06T10:29:45;18.90;;;14.70;;
65871;SDS011;52653;50.080;21.992;2023-04-06T10:32:19;16.90;;;14.50;;
65871;SDS011;52653;50.080;21.992;2023-04-06T10:35:09;19.60;;;13.90;;
65871;SDS011;52653;50.080;21.992;2023-04-06T10:37:51;16.90;;;13.40;;
65871;SDS011;52653;50.080;21.992;2023-04-06T10:40:32;18.60;;;14.50;;
65871;SDS011;52653;50.080;21.992;2023-04-06T10:43:08;16.50;;;13.60;;
65871;SDS011;52653;50.080;21.992;2023-04-06T10:45:42;15.30;;;12.60;;
65871;SDS011;52653;50.080;21.992;2023-04-06T10:48:35;18.10;;;13.60;;
65871;SDS011;52653;50.080;21.992;2023-04-06T10:51:10;17.40;;;15.20;;
65871;SDS011;52653;50.080;21.992;2023-04-06T10:53:44;21.80;;;17.90;;
65871;SDS011;52653;50.080;21.992;2023-04-06T10:56:18;20.30;;;15.60;;
65871;SDS011;52653;50.080;21.992;2023-04-06T10:58:54;18.20;;;14.10;;
65871;SDS011;52653;50.080;21.992;2023-04-06T11:01:27;17.20;;;13.00;;
65871;SDS011;52653;50.080;21.992;2023-04-06T11:04:00;17.80;;;13.30;;
65871;SDS011;52653;50.080;21.992;2023-04-06T11:06:34;17.30;;;14.00;;
65871;SDS011;52653;50.080;21.992;2023-04-06T11:09:07;21.50;;;17.90;;
65871;SDS011;52653;50.080;21.992;2023-04-06T11:11:40;20.20;;;14.40;;
65871;SDS011;52653;50.080;21.992;2023-04-06T11:14:13;20.90;;;13.60;;
65871;SDS011;52653;50.080;21.992;2023-04-06T11:16:46;19.50;;;14.80;;
65871;SDS011;52653;50.080;21.992;2023-04-06T11:19:21;25.30;;;17.50;;
65871;SDS011;52653;50.080;21.992;2023-04-06T11:21:54;23.80;;;16.80;;
65871;SDS011;52653;50.080;21.992;2023-04-06T11:24:36;22.00;;;15.50;;
65871;SDS011;52653;50.080;21.992;2023-04-06T11:27:12;17.80;;;13.50;;
65871;SDS011;52653;50.080;21.992;2023-04-06T11:29:45;17.60;;;12.30;;
65871;SDS011;52653;50.080;21.992;2023-04-06T11:32:22;16.30;;;13.50;;
65871;SDS011;52653;50.080;21.992;2023-04-06T11:35:20;17.80;;;13.90;;
65871;SDS011;52653;50.080;21.992;2023-04-06T11:38:14;20.10;;;14.50;;
65871;SDS011;52653;50.080;21.992;2023-04-06T11:40:53;21.80;;;16.20;;
65871;SDS011;52653;50.080;21.992;2023-04-06T11:43:32;20.90;;;16.80;;
65871;SDS011;52653;50.080;21.992;2023-04-06T11:46:07;19.10;;;14.40;;
65871;SDS011;52653;50.080;21.992;2023-04-06T11:48:46;17.70;;;14.40;;
65871;SDS011;52653;50.080;21.992;2023-04-06T11:51:23;19.60;;;14.80;;
65871;SDS011;52653;50.080;21.992;2023-04-06T11:53:58;15.50;;;11.50;;
65871;SDS011;52653;50.080;21.992;2023-04-06T11:56:33;17.20;;;12.20;;
65871;SDS011;52653;50.080;21.992;2023-04-06T11:59:06;17.60;;;14.60;;
65871;SDS011;52653;50.080;21.992;2023-04-06T12:01:51;17.20;;;13.70;;
65871;SDS011;52653;50.080;21.992;2023-04-06T12:04:27;18.10;;;14.80;;
65871;SDS011;52653;50.080;21.992;2023-04-06T12:07:00;19.60;;;14.90;;
65871;SDS011;52653;50.080;21.992;2023-04-06T12:09:36;17.50;;;14.20;;
65871;SDS011;52653;50.080;21.992;2023-04-06T12:12:09;16.80;;;13.70;;
65871;SDS011;52653;50.080;21.992;2023-04-06T12:14:42;18.00;;;13.90;;
65871;SDS011;52653;50.080;21.992;2023-04-06T12:17:14;16.90;;;13.30;;
65871;SDS011;52653;50.080;21.992;2023-04-06T12:19:46;16.90;;;12.70;;
65871;SDS011;52653;50.080;21.992;2023-04-06T12:22:22;16.80;;;12.80;;
65871;SDS011;52653;50.080;21.992;2023-04-06T12:24:54;15.90;;;12.60;;
65871;SDS011;52653;50.080;21.992;2023-04-06T12:27:27;19.00;;;15.00;;
65871;SDS011;52653;50.080;21.992;2023-04-06T12:30:00;19.00;;;16.10;;
65871;SDS011;52653;50.080;21.992;2023-04-06T12:32:33;17.60;;;15.00;;
65871;SDS011;52653;50.080;21.992;2023-04-06T12:35:16;18.40;;;15.20;;
65871;SDS011;52653;50.080;21.992;2023-04-06T12:38:00;16.70;;;14.70;;
65871;SDS011;52653;50.080;21.992;2023-04-06T12:40:37;17.90;;;14.80;;
65871;SDS011;52653;50.080;21.992;2023-04-06T12:43:10;16.30;;;13.90;;
65871;SDS011;52653;50.080;21.992;2023-04-06T12:45:46;17.10;;;13.10;;
65871;SDS011;52653;50.080;21.992;2023-04-06T12:48:21;13.60;;;11.40;;
65871;SDS011;52653;50.080;21.992;2023-04-06T12:51:00;14.90;;;11.90;;
65871;SDS011;52653;50.080;21.992;2023-04-06T12:53:36;15.60;;;12.90;;
65871;SDS011;52653;50.080;21.992;2023-04-06T12:56:20;18.10;;;15.20;;
65871;SDS011;52653;50.080;21.992;2023-04-06T12:58:53;16.50;;;13.00;;
65871;SDS011;52653;50.080;21.992;2023-04-06T13:01:37;18.30;;;14.80;;
65871;SDS011;52653;50.080;21.992;2023-04-06T13:04:12;17.80;;;15.40;;
65871;SDS011;52653;50.080;21.992;2023-04-06T13:06:50;17.30;;;14.80;;
65871;SDS011;52653;50.080;21.992;2023-04-06T13:09:27;17.70;;;14.70;;
65871;SDS011;52653;50.080;21.992;2023-04-06T13:11:59;21.90;;;15.40;;
65871;SDS011;52653;50.080;21.992;2023-04-06T13:14:36;26.30;;;17.80;;
65871;SDS011;52653;50.080;21.992;2023-04-06T13:17:12;24.80;;;16.70;;
65871;SDS011;52653;50.080;21.992;2023-04-06T13:19:46;26.40;;;18.40;;
65871;SDS011;52653;50.080;21.992;2023-04-06T13:22:29;23.20;;;17.10;;
65871;SDS011;52653;50.080;21.992;2023-04-06T13:25:14;21.90;;;17.30;;
65871;SDS011;52653;50.080;21.992;2023-04-06T13:27:47;18.90;;;15.30;;
65871;SDS011;52653;50.080;21.992;2023-04-06T13:30:23;21.70;;;15.90;;
65871;SDS011;52653;50.080;21.992;2023-04-06T13:32:56;22.50;;;18.20;;
65871;SDS011;52653;50.080;21.992;2023-04-06T13:35:32;21.50;;;15.60;;
65871;SDS011;52653;50.080;21.992;2023-04-06T13:38:05;18.60;;;13.80;;
65871;SDS011;52653;50.080;21.992;2023-04-06T13:40:40;18.70;;;14.80;;
65871;SDS011;52653;50.080;21.992;2023-04-06T13:43:16;20.60;;;16.00;;
65871;SDS011;52653;50.080;21.992;2023-04-06T13:45:56;21.30;;;15.00;;
65871;SDS011;52653;50.080;21.992;2023-04-06T13:48:30;18.30;;;15.80;;
65871;SDS011;52653;50.080;21.992;2023-04-06T13:51:09;20.40;;;15.70;;
65871;SDS011;52653;50.080;21.992;2023-04-06T13:53:49;21.10;;;16.30;;
65871;SDS011;52653;50.080;21.992;2023-04-06T13:56:26;19.30;;;16.40;;
65871;SDS011;52653;50.080;21.992;2023-04-06T13:59:02;24.50;;;17.20;;
65871;SDS011;52653;50.080;21.992;2023-04-06T14:01:38;27.40;;;20.30;;
65871;SDS011;52653;50.080;21.992;2023-04-06T14:04:11;26.30;;;18.40;;
65871;SDS011;52653;50.080;21.992;2023-04-06T14:06:45;19.90;;;16.00;;
65871;SDS011;52653;50.080;21.992;2023-04-06T14:09:18;21.90;;;15.20;;
65871;SDS011;52653;50.080;21.992;2023-04-06T14:11:53;22.10;;;16.50;;
65871;SDS011;52653;50.080;21.992;2023-04-06T14:14:29;20.50;;;16.90;;
65871;SDS011;52653;50.080;21.992;2023-04-06T14:17:06;25.10;;;19.10;;
65871;SDS011;52653;50.080;21.992;2023-04-06T14:19:39;22.10;;;17.80;;
65871;SDS011;52653;50.080;21.992;2023-04-06T14:22:32;20.40;;;17.20;;
65871;SDS011;52653;50.080;21.992;2023-04-06T14:25:15;19.70;;;16.10;;
65871;SDS011;52653;50.080;21.992;2023-04-06T14:28:08;22.80;;;18.40;;
65871;SDS011;52653;50.080;21.992;2023-04-06T14:30:43;22.30;;;18.70;;
65871;SDS011;52653;50.080;21.992;2023-04-06T14:33:21;26.30;;;21.80;;
65871;SDS011;52653;50.080;21.992;2023-04-06T14:35:57;28.10;;;21.00;;
65871;SDS011;52653;50.080;21.992;2023-04-06T14:38:33;26.70;;;19.50;;
65871;SDS011;52653;50.080;21.992;2023-04-06T14:41:17;24.60;;;19.10;;
65871;SDS011;52653;50.080;21.992;2023-04-06T14:43:50;25.20;;;18.90;;
65871;SDS011;52653;50.080;21.992;2023-04-06T14:46:26;23.30;;;17.80;;
65871;SDS011;52653;50.080;21.992;2023-04-06T14:48:59;28.00;;;20.00;;
65871;SDS011;52653;50.080;21.992;2023-04-06T14:51:42;24.10;;;18.90;;
65871;SDS011;52653;50.080;21.992;2023-04-06T14:54:14;24.00;;;19.30;;
65871;SDS011;52653;50.080;21.992;2023-04-06T14:56:47;21.10;;;17.50;;
65871;SDS011;52653;50.080;21.992;2023-04-06T14:59:20;25.20;;;19.40;;
65871;SDS011;52653;50.080;21.992;2023-04-06T15:01:53;24.80;;;19.40;;
65871;SDS011;52653;50.080;21.992;2023-04-06T15:04:28;30.40;;;21.20;;
65871;SDS011;52653;50.080;21.992;2023-04-06T15:07:21;24.30;;;18.90;;
65871;SDS011;52653;50.080;21.992;2023-04-06T15:09:54;27.00;;;20.00;;
65871;SDS011;52653;50.080;21.992;2023-04-06T15:12:29;28.40;;;18.80;;